Time;durP1;ratioP1;P1;durP2;ratioP2;P2;SDS_P1;SDS_P2;PMS_P1;PMS_P2;Temp;Humidity;BMP_temperature;BMP_pressure;BME280_temperature;BME280_humidity;BME280_pressure;Samples;Min_cycle;Max_cycle;Signal;HPM_P1;HPM_P2
2022/01/22 00:00:12;;;;;;;68.80;65.57;;;;;;;4.86;68.70;101635.13;687805;28;21565;-67
2022/01/22 00:00:34;;;;;;;63.40;60.50;;;;;;;4.86;68.16;101627.13;685699;28;92015;-67
2022/01/22 00:00:55;;;;;;;63.75;60.80;;;;;;;4.88;68.34;101630.50;687435;28;46288;-68
2022/01/22 00:01:16;;;;;;;54.50;52.00;;;;;;;4.87;68.58;101637.69;685690;28;21218;-67
2022/01/22 00:01:37;;;;;;;80.70;76.93;;;;;;;4.87;68.36;101640.38;686218;28;22452;-68
2022/01/22 00:01:59;;;;;;;146.65;139.60;;;;;;;4.87;68.74;101640.38;684194;28;42268;-67
2022/01/22 00:02:20;;;;;;;165.88;157.73;;;;;;;4.87;68.54;101636.81;685066;28;45244;-67
2022/01/22 00:02:42;;;;;;;167.20;158.98;;;;;;;4.86;68.92;101641.34;688459;28;23358;-67
2022/01/22 00:03:03;;;;;;;157.52;149.88;;;;;;;4.87;68.36;101639.50;688397;28;22379;-67
2022/01/22 00:03:25;;;;;;;156.05;148.43;;;;;;;4.86;68.60;101630.63;688117;28;21532;-66
2022/01/22 00:03:46;;;;;;;172.10;163.57;;;;;;;4.88;68.92;101638.53;687309;28;45022;-67
2022/01/22 00:04:07;;;;;;;167.50;159.20;;;;;;;4.87;68.92;101642.19;688329;28;21295;-67
2022/01/22 00:04:28;;;;;;;159.10;151.30;;;;;;;4.85;68.59;101638.78;688056;28;46757;-67
2022/01/22 00:04:50;;;;;;;156.55;148.90;;;;;;;4.82;68.79;101631.81;687094;28;43975;-68
2022/01/22 00:05:12;;;;;;;177.15;168.38;;;;;;;4.87;69.04;101639.50;686938;28;46276;-67
2022/01/22 00:05:33;;;;;;;172.77;164.15;;;;;;;4.86;69.01;101641.34;687821;28;23698;-68
2022/01/22 00:05:54;;;;;;;166.10;157.83;;;;;;;4.85;68.93;101636.09;688242;28;22407;-67
2022/01/22 00:06:16;;;;;;;159.80;151.90;;;;;;;4.84;69.09;101637.94;686904;28;46349;-67
2022/01/22 00:06:37;;;;;;;162.38;154.30;;;;;;;4.85;68.63;101644.13;687310;28;45242;-67
2022/01/22 00:07:01;;;;;;;166.25;157.88;;;;;;;4.87;68.71;101644.84;685863;28;42613;-67
2022/01/22 00:07:22;;;;;;;158.50;150.60;;;;;;;4.86;68.71;101640.50;686749;28;67308;-67
2022/01/22 00:07:44;;;;;;;167.27;158.95;;;;;;;4.86;68.70;101646.69;688150;28;22263;-68
2022/01/22 00:08:05;;;;;;;168.50;160.00;;;;;;;4.88;68.45;101642.06;686546;28;67282;-67
2022/01/22 00:08:26;;;;;;;163.68;155.48;;;;;;;4.86;68.75;101637.81;687974;28;22405;-67
2022/01/22 00:08:48;;;;;;;162.80;154.70;;;;;;;4.88;68.54;101642.06;688336;28;20905;-67
2022/01/22 00:09:10;;;;;;;180.00;171.00;;;;;;;4.89;68.74;101642.94;686962;28;44353;-67
2022/01/22 00:09:38;;;;;;;174.65;166.00;;;;;;;4.87;68.55;101635.03;687837;28;45411;-67
2022/01/22 00:10:04;;;;;;;162.02;154.05;;;;;;;4.88;68.32;101631.34;683987;28;160443;-67
2022/01/22 00:10:26;;;;;;;157.43;149.73;;;;;;;4.92;68.17;101645.38;684320;28;136364;-67
2022/01/22 00:10:50;;;;;;;171.77;163.30;;;;;;;4.94;67.95;101645.25;687684;28;44319;-66
2022/01/22 00:11:11;;;;;;;164.82;156.73;;;;;;;4.93;68.19;101638.19;685947;28;92305;-67
2022/01/22 00:11:36;;;;;;;156.70;149.07;;;;;;;4.94;68.04;101642.59;688674;28;21495;-67
2022/01/22 00:11:58;;;;;;;162.75;154.73;;;;;;;4.94;68.07;101634.56;683563;28;137599;-67
2022/01/22 00:12:32;;;;;;;167.38;159.05;;;;;;;4.95;67.83;101642.44;688263;28;22369;-67
2022/01/22 00:14:23;;;;;;;157.65;149.95;;;;;;;4.95;67.84;101644.28;684575;28;136008;-67
2022/01/22 00:14:44;;;;;;;160.00;152.18;;;;;;;4.97;68.26;101636.97;676305;29;137197;-67
2022/01/22 00:15:06;;;;;;;172.82;164.23;;;;;;;4.97;68.07;101626.25;679604;29;46029;-67
2022/01/22 00:15:29;;;;;;;165.00;156.80;;;;;;;4.98;68.11;101642.19;678487;29;70387;-67
2022/01/22 00:15:50;;;;;;;152.32;144.90;;;;;;;4.98;68.23;101636.00;678655;29;67667;-67
2022/01/22 00:16:12;;;;;;;159.80;151.93;;;;;;;5.00;67.76;101639.41;679387;29;22576;-67
2022/01/22 00:16:34;;;;;;;179.52;170.63;;;;;;;5.01;67.65;101630.41;680079;29;22383;-67
2022/01/22 00:16:57;;;;;;;182.82;173.73;;;;;;;5.01;67.62;101644.63;677854;28;47201;-67
2022/01/22 00:17:18;;;;;;;172.68;164.05;;;;;;;4.99;67.63;101635.88;678311;29;69382;-67
2022/01/22 00:17:39;;;;;;;164.23;156.10;;;;;;;5.01;67.51;101636.59;680063;29;21523;-67
2022/01/22 00:18:01;;;;;;;172.95;164.48;;;;;;;5.04;67.18;101638.22;679467;29;46337;-67
2022/01/22 00:18:22;;;;;;;192.30;182.75;;;;;;;5.02;67.60;101632.97;678316;29;46316;-67
2022/01/22 00:18:44;;;;;;;180.63;171.63;;;;;;;4.99;67.75;101633.22;678963;29;45264;-67
2022/01/22 00:19:08;;;;;;;165.23;157.02;;;;;;;5.04;67.94;101632.84;679534;29;23661;-67
2022/01/22 00:19:30;;;;;;;151.98;144.55;;;;;;;5.03;67.76;101634.69;677699;29;92303;-67
2022/01/22 00:19:51;;;;;;;157.23;149.52;;;;;;;5.04;68.08;101632.84;679350;29;44392;-67
2022/01/22 00:20:13;;;;;;;166.35;158.07;;;;;;;5.02;67.87;101637.47;679554;29;24334;-67
2022/01/22 00:20:36;;;;;;;161.52;153.52;;;;;;;5.04;67.96;101630.19;679406;28;44380;-66
2022/01/22 00:20:58;;;;;;;155.25;147.57;;;;;;;5.04;67.82;101638.22;682571;28;68468;-67
2022/01/22 00:21:19;;;;;;;166.45;158.23;;;;;;;5.05;67.80;101634.56;687512;28;46368;-67
2022/01/22 00:21:40;;;;;;;170.02;161.57;;;;;;;5.01;67.67;101625.06;687865;28;22408;-67
2022/01/22 00:22:03;;;;;;;155.02;147.43;;;;;;;5.03;67.73;101625.78;688764;28;21544;-67
2022/01/22 00:22:29;;;;;;;147.63;140.52;;;;;;;5.02;67.96;101624.09;686964;28;69428;-67
2022/01/22 00:22:51;;;;;;;158.63;150.85;;;;;;;5.00;67.74;101617.97;684376;28;138127;-67
2022/01/22 00:23:12;;;;;;;170.27;161.82;;;;;;;5.01;67.85;101625.06;687940;28;22299;-67
2022/01/22 00:23:54;;;;;;;157.93;150.20;;;;;;;5.04;67.55;101635.53;685496;28;98349;-67
2022/01/22 00:24:16;;;;;;;151.88;144.48;;;;;;;5.00;67.81;101624.22;683124;28;158994;-66
2022/01/22 00:24:39;;;;;;;170.63;162.15;;;;;;;5.02;67.64;101630.28;686358;28;67493;-67
2022/01/22 00:25:01;;;;;;;162.95;154.90;;;;;;;5.02;67.67;101630.28;687208;28;46342;-67
2022/01/22 00:25:23;;;;;;;154.68;147.10;;;;;;;5.02;67.56;101632.97;686423;28;67553;-66
2022/01/22 00:25:45;;;;;;;150.77;143.48;;;;;;;5.04;67.60;101632.84;688932;28;24790;-67
2022/01/22 00:26:06;;;;;;;169.05;160.63;;;;;;;5.02;67.65;101632.97;687699;28;45097;-67
2022/01/22 00:26:27;;;;;;;164.60;156.40;;;;;;;5.02;67.74;101632.97;688344;28;21362;-67
2022/01/22 00:26:48;;;;;;;153.85;146.25;;;;;;;5.01;67.81;101625.91;686244;28;22381;-67
2022/01/22 00:27:10;;;;;;;148.30;141.00;;;;;;;5.00;67.56;101632.25;687619;28;22155;-67
2022/01/22 00:27:31;;;;;;;158.23;150.32;;;;;;;5.04;67.69;101638.22;684222;28;46397;-67
2022/01/22 00:27:52;;;;;;;157.90;150.10;;;;;;;5.02;67.42;101638.31;685147;28;22319;-67
2022/01/22 00:28:13;;;;;;;150.43;143.00;;;;;;;5.04;67.37;101633.69;681537;28;46277;-67
2022/01/22 00:28:34;;;;;;;156.45;148.70;;;;;;;5.03;67.34;101637.38;679584;28;22222;-67
2022/01/22 00:28:58;;;;;;;161.45;153.45;;;;;;;5.05;67.33;101640.75;680626;28;23494;-66
2022/01/22 00:29:19;;;;;;;128.88;122.68;;;;;;;5.03;67.58;101629.34;678638;28;69729;-67
2022/01/22 00:29:40;;;;;;;126.63;120.53;;;;;;;5.04;67.43;101625.66;682959;28;21339;-67
2022/01/22 00:30:02;;;;;;;140.95;134.07;;;;;;;5.05;67.38;101630.06;685813;28;23468;-67
2022/01/22 00:30:25;;;;;;;148.80;141.50;;;;;;;5.05;67.61;101626.53;686693;28;45240;-67
2022/01/22 00:30:47;;;;;;;145.73;138.63;;;;;;;5.07;67.33;101632.63;685581;28;92249;-67
2022/01/22 00:31:08;;;;;;;139.68;132.85;;;;;;;5.06;67.54;101628.22;690171;28;44380;-67
2022/01/22 00:31:30;;;;;;;159.05;151.20;;;;;;;5.06;67.72;101622.88;687833;28;22408;-67
2022/01/22 00:31:52;;;;;;;160.45;152.57;;;;;;;5.07;67.58;101627.25;686320;28;45160;-67
2022/01/22 00:32:13;;;;;;;154.65;147.15;;;;;;;5.07;67.24;101621.91;688330;28;21513;-67
2022/01/22 00:32:34;;;;;;;162.40;154.43;;;;;;;5.08;67.31;101625.44;688513;28;23448;-67
2022/01/22 00:32:56;;;;;;;163.23;155.25;;;;;;;5.06;67.26;101625.53;688046;28;23563;-67
2022/01/22 00:33:17;;;;;;;180.07;171.18;;;;;;;5.08;67.09;101622.75;686133;28;70350;-67
2022/01/22 00:33:38;;;;;;;174.15;165.50;;;;;;;5.08;67.30;101625.44;688920;28;22414;-67
2022/01/22 00:33:59;;;;;;;166.70;158.50;;;;;;;5.08;66.99;101623.63;689269;28;21516;-67
2022/01/22 00:34:21;;;;;;;162.32;154.40;;;;;;;5.08;67.29;101623.63;686589;28;22416;-67
2022/01/22 00:34:42;;;;;;;181.93;172.98;;;;;;;5.08;67.16;101620.06;684263;28;46701;-67
2022/01/22 00:35:05;;;;;;;178.98;170.07;;;;;;;5.09;66.87;101621.78;682092;28;21476;-67
2022/01/22 00:35:27;;;;;;;170.13;161.68;;;;;;;5.09;67.33;101624.47;681407;28;69548;-67
2022/01/22 00:35:49;;;;;;;163.40;155.38;;;;;;;5.08;66.99;101620.94;683369;28;22233;-67
2022/01/22 00:36:10;;;;;;;170.52;162.18;;;;;;;5.04;66.96;101617.63;683864;28;46316;-67
2022/01/22 00:36:31;;;;;;;185.90;176.68;;;;;;;5.09;67.59;101619.94;687319;28;22239;-67
2022/01/22 00:36:53;;;;;;;175.65;166.95;;;;;;;5.09;67.30;101622.63;686744;28;46427;-67
2022/01/22 00:37:16;;;;;;;172.43;163.82;;;;;;;5.09;67.65;101619.94;687751;28;44381;-67
2022/01/22 00:37:38;;;;;;;172.07;163.55;;;;;;;5.08;67.69;101620.94;687403;28;45032;-67
2022/01/22 00:38:00;;;;;;;200.15;190.30;;;;;;;5.09;67.76;101627.97;687047;28;46487;-67
2022/01/22 00:38:21;;;;;;;200.57;190.68;;;;;;;5.09;67.69;101625.31;689040;28;1455;-67
2022/01/22 00:38:42;;;;;;;192.13;182.60;;;;;;;5.09;67.71;101616.44;688180;28;22409;-67
2022/01/22 00:39:04;;;;;;;182.15;173.10;;;;;;;5.09;67.44;101624.47;688023;28;21502;-67
2022/01/22 00:39:25;;;;;;;182.68;173.55;;;;;;;5.09;67.62;101622.63;685283;28;67536;-67
2022/01/22 00:39:46;;;;;;;202.95;192.80;;;;;;;5.08;67.60;101628.97;685658;28;23562;-66
2022/01/22 00:40:10;;;;;;;195.07;185.38;;;;;;;5.09;67.77;101625.31;688677;28;22415;-66
2022/01/22 00:40:32;;;;;;;183.30;174.13;;;;;;;5.08;67.54;101620.94;683696;28;69478;-67
2022/01/22 00:40:53;;;;;;;182.45;173.35;;;;;;;5.08;67.55;101630.78;683869;28;69245;-67
2022/01/22 00:41:14;;;;;;;199.40;189.52;;;;;;;5.03;67.64;101613.25;682702;28;22418;-67
2022/01/22 00:41:36;;;;;;;192.32;182.82;;;;;;;5.07;67.42;101621.06;682242;28;22966;-67
2022/01/22 00:41:58;;;;;;;186.45;177.20;;;;;;;5.10;67.17;101626.19;682917;28;22492;-67
2022/01/22 00:42:20;;;;;;;203.35;193.25;;;;;;;5.09;67.30;101624.47;682630;28;45247;-67
2022/01/22 00:42:43;;;;;;;205.27;195.13;;;;;;;5.11;67.48;101627.88;679880;29;68907;-67
2022/01/22 00:43:04;;;;;;;194.27;184.65;;;;;;;5.09;67.38;101627.97;682444;28;44369;-67
2022/01/22 00:43:26;;;;;;;187.23;177.93;;;;;;;5.09;67.52;101632.50;684167;28;22393;-67
2022/01/22 00:43:48;;;;;;;203.32;193.23;;;;;;;5.09;67.48;101627.13;685411;28;69313;-67
2022/01/22 00:44:10;;;;;;;213.30;202.77;;;;;;;5.07;67.44;101629.09;684998;28;22449;-67
2022/01/22 00:44:31;;;;;;;204.13;194.07;;;;;;;5.08;67.73;101628.09;684690;28;69418;-67
2022/01/22 00:44:53;;;;;;;193.52;184.00;;;;;;;5.07;67.68;101627.25;688251;28;22408;-67
2022/01/22 00:45:15;;;;;;;197.98;188.15;;;;;;;5.08;67.38;101630.78;687398;28;47589;-67
2022/01/22 00:45:37;;;;;;;202.00;192.02;;;;;;;5.06;67.61;101628.22;687571;28;46836;-67
2022/01/22 00:45:59;;;;;;;190.52;181.05;;;;;;;5.08;67.45;101630.78;691116;28;22437;-67
2022/01/22 00:46:20;;;;;;;204.23;194.15;;;;;;;5.08;67.74;101630.78;686691;28;45260;-67
2022/01/22 00:46:41;;;;;;;215.80;205.20;;;;;;;5.05;67.45;101632.72;686850;28;44480;-67
2022/01/22 00:47:03;;;;;;;208.38;198.07;;;;;;;5.09;67.35;101635.19;688473;28;22409;-67
2022/01/22 00:47:24;;;;;;;199.07;189.20;;;;;;;5.08;67.45;101636.13;687682;28;21379;-67
2022/01/22 00:47:46;;;;;;;189.30;179.90;;;;;;;5.07;67.33;101629.94;686385;28;47602;-67
2022/01/22 00:48:07;;;;;;;202.18;192.18;;;;;;;5.08;67.44;101633.47;686112;28;22305;-67
2022/01/22 00:48:28;;;;;;;199.52;189.65;;;;;;;5.08;67.44;101639.69;687537;28;45064;-67
2022/01/22 00:48:50;;;;;;;190.27;180.82;;;;;;;5.06;66.97;101633.56;688214;28;23374;-67
2022/01/22 00:49:11;;;;;;;210.38;199.98;;;;;;;5.07;66.97;101640.66;686937;28;45330;-67
2022/01/22 00:49:33;;;;;;;207.55;197.27;;;;;;;5.08;67.03;101631.66;688504;28;21551;-67
2022/01/22 00:49:54;;;;;;;197.98;188.18;;;;;;;5.07;66.81;101632.63;687115;28;45732;-67
2022/01/22 00:50:19;;;;;;;194.70;185.00;;;;;;;5.10;66.98;101639.56;687608;28;45230;-67
2022/01/22 00:50:40;;;;;;;218.00;207.20;;;;;;;5.11;66.96;101641.25;683021;28;90359;-67
2022/01/22 00:51:01;;;;;;;202.80;192.80;;;;;;;5.10;66.76;101636.88;685652;28;22412;-67
2022/01/22 00:51:23;;;;;;;186.20;176.93;;;;;;;5.11;66.52;101639.44;683948;28;21507;-67
2022/01/22 00:51:44;;;;;;;176.75;167.93;;;;;;;5.11;66.77;101628.75;683851;28;44364;-67
2022/01/22 00:52:05;;;;;;;208.43;198.13;;;;;;;5.12;66.72;101640.28;685347;28;23517;-67
2022/01/22 00:52:27;;;;;;;213.75;203.23;;;;;;;5.12;66.78;101637.63;683559;28;22272;-66
2022/01/22 00:52:48;;;;;;;190.10;180.68;;;;;;;5.14;66.64;101635.66;682583;28;22429;-67
2022/01/22 00:53:10;;;;;;;186.05;176.82;;;;;;;5.12;66.60;101633.09;682405;28;46325;-67
2022/01/22 00:53:32;;;;;;;185.02;175.82;;;;;;;5.12;66.82;101640.28;684991;28;45446;-66
2022/01/22 00:53:53;;;;;;;205.68;195.45;;;;;;;5.15;66.47;101635.53;682732;28;22715;-67
2022/01/22 00:54:15;;;;;;;210.73;200.30;;;;;;;5.15;66.92;101637.38;680196;28;21520;-67
2022/01/22 00:54:36;;;;;;;199.88;189.98;;;;;;;5.15;67.27;101638.22;682405;28;47185;-67
2022/01/22 00:54:57;;;;;;;190.40;180.95;;;;;;;5.15;67.30;101637.38;685718;28;21527;-67
2022/01/22 00:55:18;;;;;;;184.18;175.02;;;;;;;5.14;67.31;101644.56;683079;28;44126;-67
2022/01/22 00:55:39;;;;;;;206.43;196.20;;;;;;;5.15;67.21;101640.06;683594;28;22464;-67
2022/01/22 00:56:01;;;;;;;206.73;196.48;;;;;;;5.15;67.45;101646.25;683253;28;21566;-67
2022/01/22 00:56:22;;;;;;;202.13;192.13;;;;;;;5.15;67.14;101648.09;685348;28;32561;-67
2022/01/22 00:56:44;;;;;;;199.65;189.75;;;;;;;5.16;67.28;101642.63;686155;28;22566;-67
2022/01/22 00:57:05;;;;;;;210.23;199.75;;;;;;;5.16;67.49;101647.97;684315;28;21448;-67
2022/01/22 00:57:27;;;;;;;217.55;206.75;;;;;;;5.16;67.41;101641.78;686400;28;22406;-67
2022/01/22 00:57:48;;;;;;;203.82;193.70;;;;;;;5.16;67.62;101649.81;685603;28;43921;-67
2022/01/22 00:58:10;;;;;;;195.90;186.15;;;;;;;5.16;67.75;101647.13;683711;28;22406;-67
2022/01/22 00:58:31;;;;;;;216.85;206.10;;;;;;;5.17;67.45;101646.13;683375;28;46171;-67
2022/01/22 00:58:53;;;;;;;221.00;210.07;;;;;;;5.16;67.52;101645.28;686302;28;21530;-67
2022/01/22 00:59:15;;;;;;;211.25;200.80;;;;;;;5.16;67.77;101644.44;685648;28;46325;-67
2022/01/22 00:59:36;;;;;;;198.45;188.65;;;;;;;5.16;67.57;101652.47;684941;28;67243;-66
2022/01/22 00:59:57;;;;;;;200.45;190.55;;;;;;;5.15;67.45;101651.59;684581;28;22397;-67
2022/01/22 01:00:18;;;;;;;204.88;194.80;;;;;;;5.16;67.43;101650.66;683762;28;21160;-67
2022/01/22 01:00:41;;;;;;;189.32;180.00;;;;;;;5.17;67.43;101648.81;683262;28;22397;-67
2022/01/22 01:01:04;;;;;;;178.77;169.88;;;;;;;5.16;67.73;101649.81;682663;28;69553;-66
2022/01/22 01:01:25;;;;;;;197.35;187.55;;;;;;;5.15;67.51;101648.94;684682;28;70799;-67
2022/01/22 01:01:46;;;;;;;215.98;205.38;;;;;;;5.15;67.15;101656.97;685625;28;23443;-67
2022/01/22 01:02:07;;;;;;;207.70;197.45;;;;;;;5.15;67.16;101653.44;687463;28;1616;-67
2022/01/22 01:02:30;;;;;;;198.25;188.43;;;;;;;5.16;67.38;101655.16;688327;28;21365;-67
2022/01/22 01:02:51;;;;;;;186.75;177.43;;;;;;;5.16;67.30;101658.69;687694;28;45020;-67
2022/01/22 01:03:12;;;;;;;178.63;169.73;;;;;;;5.15;67.21;101653.44;688155;28;22394;-67
2022/01/22 01:03:34;;;;;;;194.70;185.02;;;;;;;5.16;67.26;101655.16;684551;28;44281;-67
2022/01/22 01:04:00;;;;;;;194.48;184.82;;;;;;;5.12;67.18;101651.84;683594;28;45211;-67
2022/01/22 01:04:22;;;;;;;191.52;182.00;;;;;;;5.14;67.32;101647.25;679669;28;136584;-67
2022/01/22 01:04:43;;;;;;;207.20;196.93;;;;;;;5.15;67.18;101659.63;681548;28;22392;-66
2022/01/22 01:05:07;;;;;;;196.88;187.10;;;;;;;5.16;67.12;101655.16;682762;28;46320;-66
2022/01/22 01:05:29;;;;;;;189.65;180.18;;;;;;;5.18;67.27;101661.25;682235;28;90196;-67
2022/01/22 01:05:51;;;;;;;218.57;207.73;;;;;;;5.16;67.33;101661.34;684640;28;44493;-67
2022/01/22 01:06:13;;;;;;;217.23;206.48;;;;;;;5.14;67.20;101662.44;684486;28;1250;-67
2022/01/22 01:06:35;;;;;;;205.82;195.63;;;;;;;5.16;67.09;101665.88;682582;28;45247;-67
2022/01/22 01:06:57;;;;;;;196.07;186.32;;;;;;;5.15;67.07;101666.84;682064;28;22397;-67
2022/01/22 01:07:18;;;;;;;205.02;194.85;;;;;;;5.14;67.18;101662.44;679202;28;44389;-66
2022/01/22 01:07:40;;;;;;;208.60;198.25;;;;;;;5.12;67.38;101662.56;680281;29;21340;-67
2022/01/22 01:08:01;;;;;;;198.25;188.40;;;;;;;5.15;66.98;101661.47;680394;28;46342;-66
2022/01/22 01:08:23;;;;;;;192.13;182.50;;;;;;;5.14;67.47;101652.59;682215;28;47006;-67
2022/01/22 01:08:44;;;;;;;214.25;203.63;;;;;;;5.15;67.19;101662.31;682739;28;44405;-67
2022/01/22 01:09:08;;;;;;;235.65;224.00;;;;;;;5.17;67.44;101656.84;685742;28;22419;-67
2022/01/22 01:09:31;;;;;;;224.98;213.80;;;;;;;5.16;67.51;101661.34;682837;28;90327;-67
2022/01/22 01:09:52;;;;;;;212.18;201.60;;;;;;;5.13;67.68;101658.06;685041;28;44353;-67
2022/01/22 01:10:17;;;;;;;202.27;192.18;;;;;;;5.16;67.71;101660.50;681523;28;46280;-67
2022/01/22 01:10:38;;;;;;;196.88;187.00;;;;;;;5.16;67.52;101661.34;678466;28;115066;-67
2022/01/22 01:11:00;;;;;;;215.68;204.90;;;;;;;5.16;67.58;101666.72;680186;28;22400;-66
2022/01/22 01:11:24;;;;;;;213.90;203.27;;;;;;;5.15;67.71;101670.34;681339;28;19700;-67
2022/01/22 01:11:51;;;;;;;203.75;193.60;;;;;;;5.16;67.77;101673.91;678733;28;116005;-67
2022/01/22 01:12:13;;;;;;;201.27;191.30;;;;;;;5.16;67.77;101666.72;675251;29;161663;-67
2022/01/22 01:12:37;;;;;;;237.02;225.30;;;;;;;5.18;67.76;101666.59;680355;28;67486;-67
2022/01/22 01:12:58;;;;;;;231.00;219.52;;;;;;;5.15;67.66;101664.16;683130;28;67476;-67
2022/01/22 01:13:21;;;;;;;217.85;207.07;;;;;;;5.17;67.37;101675.59;686696;28;44355;-67
2022/01/22 01:13:46;;;;;;;207.48;197.18;;;;;;;5.17;67.61;101670.25;684751;28;46370;-67
2022/01/22 01:14:10;;;;;;;196.93;187.13;;;;;;;5.16;67.45;101672.06;678250;28;113578;-67
2022/01/22 01:14:39;;;;;;;212.65;202.15;;;;;;;5.17;67.37;101667.56;677218;28;115074;-67
2022/01/22 01:15:13;;;;;;;217.77;206.98;;;;;;;5.17;67.36;101668.44;676588;28;138695;-67
2022/01/22 01:15:40;;;;;;;199.43;189.50;;;;;;;5.17;67.18;101668.44;676899;28;138694;-67
2022/01/22 01:16:14;;;;;;;208.07;197.73;;;;;;;5.18;67.31;101680.00;679839;28;137868;-67
2022/01/22 01:16:57;;;;;;;216.82;206.02;;;;;;;5.18;67.40;101669.28;681882;28;121378;-67
2022/01/22 01:32:09;;;;;;;221.07;210.07;;;;;;;5.16;67.33;101666.72;682539;28;139020;-67
2022/01/22 01:32:18;;;;;;;183.52;174.43;;;;;;;5.19;66.85;101687.06;677719;28;156122;-66
2022/01/22 01:32:48;;;;;;;195.25;185.55;;;;;;;5.19;66.91;101676.34;677570;29;138077;-66
2022/01/22 01:33:15;;;;;;;189.88;180.43;;;;;;;5.19;66.90;101687.06;676039;28;161767;-67
2022/01/22 01:33:44;;;;;;;215.57;204.93;;;;;;;5.19;67.09;101687.06;676336;29;138006;-66
2022/01/22 01:34:09;;;;;;;204.35;194.20;;;;;;;5.20;67.08;101678.03;675770;28;137953;-66
2022/01/22 01:34:31;;;;;;;192.70;183.00;;;;;;;5.19;67.21;101682.56;677703;28;113358;-67
2022/01/22 01:34:53;;;;;;;190.00;180.43;;;;;;;5.19;67.37;101674.50;678871;29;21496;-67
2022/01/22 01:35:14;;;;;;;213.45;202.80;;;;;;;5.18;67.18;101677.31;679735;29;46351;-67
2022/01/22 01:35:38;;;;;;;209.32;198.82;;;;;;;5.15;67.31;101674.88;682291;28;22381;-66
2022/01/22 01:36:00;;;;;;;196.90;187.10;;;;;;;5.16;67.39;101677.44;680361;28;92310;-67
2022/01/22 01:36:22;;;;;;;189.02;179.57;;;;;;;5.16;67.38;101674.75;679879;29;46206;-67
2022/01/22 01:36:44;;;;;;;212.70;202.10;;;;;;;5.17;67.53;101680.94;678172;28;69509;-66
2022/01/22 01:37:07;;;;;;;212.23;201.68;;;;;;;5.15;67.58;101675.72;676705;29;92439;-67
2022/01/22 01:37:29;;;;;;;205.02;194.75;;;;;;;5.15;67.35;101674.88;680140;29;22377;-67
2022/01/22 01:37:52;;;;;;;196.35;186.50;;;;;;;5.11;67.48;101671.59;681355;28;46448;-67
2022/01/22 01:38:13;;;;;;;203.13;193.03;;;;;;;5.17;67.69;101683.63;679701;28;92242;-67
2022/01/22 01:38:40;;;;;;;205.60;195.35;;;;;;;5.16;67.51;101676.59;678914;29;44450;-67
2022/01/22 01:39:03;;;;;;;185.27;175.95;;;;;;;5.11;67.22;101671.59;677320;28;138898;-67
2022/01/22 01:39:30;;;;;;;207.98;197.52;;;;;;;5.17;67.29;101686.31;676113;28;92308;-67
2022/01/22 01:39:55;;;;;;;205.88;195.63;;;;;;;5.16;67.29;101677.44;672450;29;137753;-67
2022/01/22 01:40:19;;;;;;;203.32;193.13;;;;;;;5.18;67.18;101677.31;676419;29;93074;-67
2022/01/22 01:40:44;;;;;;;197.73;187.90;;;;;;;5.16;67.27;101677.44;676077;29;114895;-67
2022/01/22 01:41:15;;;;;;;193.13;183.45;;;;;;;5.17;67.12;101678.28;678817;28;115167;-67
2022/01/22 01:41:45;;;;;;;180.25;171.15;;;;;;;5.17;67.42;101683.63;677435;29;137607;-67
2022/01/22 01:42:12;;;;;;;189.02;179.55;;;;;;;5.16;67.66;101677.44;672100;29;157294;-67
2022/01/22 01:42:43;;;;;;;194.13;184.35;;;;;;;5.16;67.64;101677.44;674355;29;136524;-67
2022/01/22 01:43:08;;;;;;;187.98;178.55;;;;;;;5.16;67.25;101677.44;674430;29;137693;-67
2022/01/22 01:43:35;;;;;;;204.48;194.32;;;;;;;5.17;67.43;101678.28;673991;29;159366;-67
2022/01/22 01:44:18;;;;;;;185.30;176.02;;;;;;;5.16;67.42;101682.78;677469;29;138024;-67
2022/01/22 01:44:56;;;;;;;205.35;195.07;;;;;;;5.15;67.54;101680.22;681334;28;60071;-67
2022/01/22 01:45:37;;;;;;;194.52;184.75;;;;;;;5.15;67.70;101682.91;678906;28;137221;-67
2022/01/22 01:45:58;;;;;;;199.48;189.52;;;;;;;5.16;67.70;101681.94;681918;28;69424;-67
2022/01/22 01:46:19;;;;;;;216.30;205.55;;;;;;;5.15;67.87;101681.06;682722;28;22409;-66
2022/01/22 01:46:44;;;;;;;205.10;194.90;;;;;;;5.15;67.70;101685.59;679783;28;45174;-67
2022/01/22 01:47:07;;;;;;;191.23;181.63;;;;;;;5.15;67.75;101691.78;683713;28;90548;-66
2022/01/22 01:47:30;;;;;;;188.40;178.93;;;;;;;5.15;67.95;101686.41;684618;28;92311;-67
2022/01/22 01:47:53;;;;;;;210.35;199.93;;;;;;;5.15;67.97;101688.25;684898;28;45239;-67
2022/01/22 01:48:20;;;;;;;211.07;200.60;;;;;;;5.14;68.22;101694.56;681744;28;90737;-66
2022/01/22 01:48:42;;;;;;;202.52;192.45;;;;;;;5.15;67.60;101688.25;678055;28;138079;-67
2022/01/22 01:49:04;;;;;;;229.38;217.98;;;;;;;5.15;67.92;101686.41;679785;28;70082;-67
2022/01/22 01:49:27;;;;;;;226.65;215.40;;;;;;;5.14;67.85;101683.88;677994;29;46417;-67
2022/01/22 01:49:48;;;;;;;215.35;204.65;;;;;;;5.15;67.92;101697.13;677417;29;46327;-66
2022/01/22 01:50:25;;;;;;;188.57;179.23;;;;;;;5.14;68.19;101699.94;675136;29;138251;-66
2022/01/22 01:50:46;;;;;;;217.75;207.00;;;;;;;5.13;68.04;101693.72;677338;29;70160;-67
2022/01/22 01:51:07;;;;;;;218.45;207.65;;;;;;;5.15;67.96;101696.28;678902;29;22248;-67
2022/01/22 01:51:31;;;;;;;210.32;199.98;;;;;;;5.15;67.81;101697.13;680489;29;23506;-67
2022/01/22 01:51:56;;;;;;;198.02;188.23;;;;;;;5.15;67.97;101702.50;678248;28;90531;-66
2022/01/22 01:52:24;;;;;;;223.35;212.30;;;;;;;5.14;67.98;101691.91;678954;28;90970;-66
2022/01/22 01:52:50;;;;;;;224.88;213.82;;;;;;;5.16;67.50;101693.50;679109;28;138145;-66
2022/01/22 01:53:26;;;;;;;209.90;199.57;;;;;;;5.17;67.88;101697.03;679397;28;137782;-66
2022/01/22 01:53:55;;;;;;;196.43;186.70;;;;;;;5.14;67.93;101706.16;679125;28;138157;-67
2022/01/22 01:54:34;;;;;;;220.68;209.77;;;;;;;5.13;68.07;101701.75;679342;28;138156;-67
2022/01/22 01:55:02;;;;;;;204.05;193.98;;;;;;;5.16;67.73;101706.03;679241;28;158946;-67
2022/01/22 01:55:34;;;;;;;212.45;201.90;;;;;;;5.13;68.03;101699.09;678498;28;136254;-66
2022/01/22 01:57:30;;;;;;;217.60;206.88;;;;;;;5.13;68.31;101696.41;680318;28;137707;-67
2022/01/22 01:57:38;;;;;;;206.10;195.93;;;;;;;5.14;68.04;101706.16;679172;28;137542;-67
2022/01/22 01:57:59;;;;;;;209.50;199.13;;;;;;;5.13;68.11;101707.13;681357;28;136283;-67
2022/01/22 01:58:20;;;;;;;203.65;193.63;;;;;;;5.14;68.30;101713.31;685316;28;46571;-67
2022/01/22 01:58:44;;;;;;;235.65;224.13;;;;;;;5.14;68.19;101710.66;681893;28;69474;-66
2022/01/22 01:59:06;;;;;;;231.77;220.27;;;;;;;5.14;68.16;101713.31;681220;28;45262;-67
2022/01/22 01:59:28;;;;;;;222.82;211.82;;;;;;;5.12;67.91;101710.75;683557;28;21542;-66
2022/01/22 01:59:51;;;;;;;212.48;202.02;;;;;;;5.13;67.95;101711.63;681988;28;69432;-67
2022/01/22 02:00:27;;;;;;;207.48;197.25;;;;;;;5.12;67.86;101717.94;681107;28;137709;-67
2022/01/22 02:00:54;;;;;;;225.85;214.70;;;;;;;5.12;67.87;101710.75;681439;28;136364;-67
2022/01/22 02:01:16;;;;;;;214.13;203.57;;;;;;;5.14;67.94;101716.00;679648;28;68596;-67
2022/01/22 02:01:38;;;;;;;205.07;194.98;;;;;;;5.11;67.93;101706.41;683875;28;45421;-67
2022/01/22 02:01:59;;;;;;;214.13;203.57;;;;;;;5.14;67.84;101718.69;682210;28;42469;-67
2022/01/22 02:02:23;;;;;;;231.10;219.77;;;;;;;5.14;68.11;101716.00;681393;29;22421;-66
2022/01/22 02:02:47;;;;;;;218.68;207.88;;;;;;;5.14;67.87;101714.19;679519;28;138127;-67